createdAt,value
2023-05-21T00:00:12.324Z,69.47
2023-05-21T00:02:40.180Z,69.30
2023-05-21T00:05:14.364Z,70.00
2023-05-21T00:07:41.479Z,70.14
2023-05-21T00:10:08.337Z,70.78
2023-05-21T00:12:35.001Z,69.99
2023-05-21T00:15:01.754Z,70.57
2023-05-21T00:17:28.685Z,70.79
2023-05-21T00:19:56.860Z,70.61
2023-05-21T00:22:23.938Z,70.75
2023-05-21T00:24:50.636Z,70.79
2023-05-21T00:27:17.187Z,70.51
2023-05-21T00:29:44.492Z,71.15
2023-05-21T00:32:11.246Z,70.99
2023-05-21T00:34:38.300Z,71.32
2023-05-21T00:37:04.875Z,71.69
2023-05-21T00:39:31.391Z,71.43
2023-05-21T00:41:57.962Z,71.50
2023-05-21T00:44:25.510Z,71.89
2023-05-21T00:46:53.740Z,72.30
2023-05-21T00:49:25.925Z,72.52
2023-05-21T00:51:53.059Z,72.47
2023-05-21T00:54:19.788Z,72.63
2023-05-21T00:56:47.402Z,72.92
2023-05-21T00:59:16.498Z,73.38
2023-05-21T01:01:46.133Z,73.49
2023-05-21T01:04:13.174Z,74.15
2023-05-21T01:06:44.047Z,74.21
2023-05-21T01:09:13.774Z,74.08
2023-05-21T01:11:44.904Z,74.99
2023-05-21T01:14:15.866Z,75.24
2023-05-21T01:16:56.069Z,75.74
2023-05-21T01:19:24.294Z,76.03
2023-05-21T01:21:55.553Z,77.01
2023-05-21T01:24:27.980Z,77.29
2023-05-21T01:27:11.381Z,76.23
2023-05-21T01:29:38.043Z,77.40
2023-05-21T01:32:30.146Z,77.42
2023-05-21T01:35:21.420Z,77.93
2023-05-21T01:38:08.335Z,78.53
2023-05-21T01:41:09.687Z,78.99
2023-05-21T01:43:39.178Z,79.43
2023-05-21T01:46:09.566Z,79.53
2023-05-21T01:48:36.548Z,79.39
2023-05-21T01:51:06.633Z,79.73
2023-05-21T01:53:41.619Z,80.66
2023-05-21T01:56:08.247Z,80.87
2023-05-21T01:59:00.097Z,80.76
2023-05-21T02:01:32.455Z,81.08
2023-05-21T02:06:45.313Z,81.43
2023-05-21T02:09:14.881Z,81.80
2023-05-21T02:11:46.684Z,82.41
2023-05-21T02:14:26.652Z,82.51
2023-05-21T02:17:03.512Z,82.37
2023-05-21T02:19:41.283Z,83.00
2023-05-21T02:22:28.836Z,83.26
2023-05-21T02:25:14.309Z,83.54
2023-05-21T02:27:46.083Z,83.46
2023-05-21T02:30:23.898Z,84.19
2023-05-21T02:33:16.868Z,84.99
2023-05-21T02:35:50.850Z,85.07
2023-05-21T02:38:26.800Z,84.78
2023-05-21T02:40:55.809Z,85.50
2023-05-21T02:43:22.372Z,85.72
2023-05-21T02:45:48.996Z,86.15
2023-05-21T02:48:15.663Z,86.19
2023-05-21T02:50:42.154Z,85.87
2023-05-21T02:53:08.669Z,86.29
2023-05-21T02:55:35.574Z,87.18
2023-05-21T02:58:02.834Z,87.13
2023-05-21T03:00:49.754Z,87.12
2023-05-21T03:03:19.747Z,86.70
2023-05-21T03:05:53.751Z,86.94
2023-05-21T03:08:26.718Z,87.24
2023-05-21T03:10:53.249Z,87.45
2023-05-21T03:13:20.285Z,87.55
2023-05-21T03:15:46.825Z,87.87
2023-05-21T03:18:13.317Z,87.86
2023-05-21T03:20:45.553Z,88.40
2023-05-21T03:23:20.624Z,87.99
2023-05-21T03:25:48.780Z,88.09
2023-05-21T03:28:15.210Z,89.20
2023-05-21T03:30:41.982Z,88.69
2023-05-21T03:33:18.177Z,89.20
2023-05-21T03:35:44.992Z,89.97
2023-05-21T03:38:11.576Z,89.26
2023-05-21T03:40:43.962Z,89.05
2023-05-21T03:43:16.433Z,89.12
2023-05-21T03:45:45.873Z,89.82
2023-05-21T03:48:24.761Z,90.09
2023-05-21T03:53:39.744Z,89.13
2023-05-21T03:56:19.187Z,89.21
2023-05-21T03:58:51.586Z,89.20
2023-05-21T04:01:18.340Z,89.85
2023-05-21T04:07:13.602Z,88.39
2023-05-21T04:09:41.826Z,87.85
2023-05-21T04:12:09.703Z,87.92
2023-05-21T04:14:41.791Z,87.25
2023-05-21T04:17:09.211Z,86.29
2023-05-21T04:19:39.957Z,85.32
2023-05-21T04:22:06.559Z,85.33
2023-05-21T04:24:53.226Z,84.05
2023-05-21T04:27:20.550Z,85.28
2023-05-21T04:29:58.648Z,84.62
2023-05-21T04:32:25.232Z,84.39
2023-05-21T04:34:51.924Z,84.26
2023-05-21T04:37:18.519Z,85.42
2023-05-21T04:39:45.490Z,84.81
2023-05-21T04:42:12.095Z,84.40
2023-05-21T04:44:55.531Z,84.08
2023-05-21T04:47:37.819Z,83.53
2023-05-21T04:50:05.176Z,83.38
2023-05-21T04:52:31.776Z,83.01
2023-05-21T04:55:01.576Z,82.77
2023-05-21T04:57:31.342Z,81.95
2023-05-21T04:59:58.006Z,81.25
2023-05-21T05:02:24.898Z,80.83
2023-05-21T05:04:51.579Z,80.24
2023-05-21T05:07:18.299Z,78.82
2023-05-21T05:09:44.853Z,78.87
2023-05-21T05:12:20.084Z,78.16
2023-05-21T05:14:46.744Z,78.23
2023-05-21T05:17:16.398Z,77.43
2023-05-21T05:19:43.120Z,77.74
2023-05-21T05:22:15.453Z,77.02
2023-05-21T05:24:54.182Z,75.27
2023-05-21T05:27:21.020Z,76.30
2023-05-21T05:29:48.046Z,75.62
2023-05-21T05:32:22.079Z,74.59
2023-05-21T05:35:02.506Z,74.97
2023-05-21T05:37:29.529Z,74.95
2023-05-21T05:40:02.171Z,73.47
2023-05-21T05:42:30.821Z,72.18
2023-05-21T05:45:35.486Z,71.69
2023-05-21T05:48:02.921Z,70.55
2023-05-21T05:50:35.907Z,70.45
2023-05-21T05:53:04.927Z,68.36
2023-05-21T05:55:31.680Z,68.10
2023-05-21T05:57:58.188Z,67.65
2023-05-21T06:00:24.870Z,67.64
2023-05-21T06:03:07.232Z,67.17
2023-05-21T06:05:33.858Z,67.12
2023-05-21T06:08:01.778Z,66.93
2023-05-21T06:10:42.148Z,65.76
2023-05-21T06:13:13.228Z,63.78
2023-05-21T06:15:45.680Z,63.88
2023-05-21T06:18:17.545Z,63.51
2023-05-21T06:20:44.736Z,60.54
2023-05-21T06:23:14.204Z,60.37
2023-05-21T06:25:51.502Z,60.00
2023-05-21T06:28:27.848Z,60.00
2023-05-21T06:30:54.736Z,60.45
2023-05-21T06:33:24.696Z,61.17
2023-05-21T06:35:53.818Z,60.07
2023-05-21T06:38:20.705Z,59.22
2023-05-21T06:41:00.683Z,58.21
2023-05-21T06:43:57.900Z,56.28
2023-05-21T06:46:30.317Z,53.40
2023-05-21T06:48:59.886Z,53.35
2023-05-21T06:51:35.751Z,51.54
2023-05-21T06:54:05.453Z,52.07
2023-05-21T06:56:45.881Z,49.72
2023-05-21T06:59:12.605Z,49.80
2023-05-21T07:01:42.653Z,51.55
2023-05-21T07:04:11.901Z,51.59
2023-05-21T07:06:41.731Z,49.96
2023-05-21T07:09:11.650Z,49.17
2023-05-21T07:11:48.546Z,50.98
2023-05-21T07:14:15.188Z,49.44
2023-05-21T07:16:50.925Z,50.01
2023-05-21T07:19:28.993Z,50.92
2023-05-21T07:21:57.994Z,50.20
2023-05-21T07:24:24.555Z,52.31
2023-05-21T07:26:52.193Z,53.89
2023-05-21T07:29:19.984Z,51.92
2023-05-21T07:31:48.725Z,49.12
2023-05-21T07:34:17.414Z,52.01
2023-05-21T07:36:46.951Z,52.57
2023-05-21T07:39:13.858Z,54.31
2023-05-21T07:41:40.588Z,53.02
2023-05-21T07:44:07.301Z,53.09
2023-05-21T07:46:36.780Z,53.91
2023-05-21T07:49:17.074Z,54.10
2023-05-21T07:51:44.349Z,54.63
2023-05-21T07:54:12.414Z,56.13
2023-05-21T07:56:39.316Z,55.29
2023-05-21T07:59:06.066Z,55.72
2023-05-21T08:01:34.411Z,55.10
2023-05-21T08:07:14.632Z,54.79
2023-05-21T08:09:43.091Z,55.65
2023-05-21T08:12:19.317Z,54.55
2023-05-21T08:15:03.411Z,54.92
2023-05-21T08:20:46.865Z,54.72
2023-05-21T08:23:13.850Z,54.11
2023-05-21T08:25:50.095Z,55.33
2023-05-21T08:28:19.332Z,53.36
2023-05-21T08:31:02.721Z,53.62
2023-05-21T08:33:29.820Z,53.03
2023-05-21T08:36:11.822Z,54.12
2023-05-21T08:38:43.732Z,55.05
2023-05-21T08:41:15.882Z,53.66
2023-05-21T08:44:24.466Z,52.62
2023-05-21T08:49:57.408Z,50.45
2023-05-21T08:52:39.522Z,51.67
2023-05-21T08:55:11.157Z,52.43
2023-05-21T08:57:43.356Z,51.80
2023-05-21T09:00:11.832Z,51.25
2023-05-21T09:03:08.845Z,51.08
2023-05-21T09:05:45.932Z,53.13
2023-05-21T09:08:26.934Z,51.58
2023-05-21T09:10:56.450Z,51.29
2023-05-21T09:13:44.817Z,50.13
2023-05-21T09:16:11.639Z,51.84
2023-05-21T09:18:49.205Z,50.45
2023-05-21T09:21:38.030Z,49.44
2023-05-21T09:24:05.178Z,50.04
2023-05-21T09:29:29.991Z,49.30
2023-05-21T09:32:39.882Z,49.10
2023-05-21T09:35:25.151Z,48.59
2023-05-21T09:37:58.195Z,49.73
2023-05-21T09:40:25.096Z,49.93
2023-05-21T11:02:41.484Z,47.61
2023-05-21T11:05:08.648Z,46.21
2023-05-21T11:08:01.709Z,45.96
2023-05-21T11:10:44.467Z,45.03
2023-05-21T11:13:16.278Z,45.36
2023-05-21T11:16:06.141Z,44.21
2023-05-21T11:18:35.607Z,44.39
2023-05-21T11:21:18.733Z,45.30
2023-05-21T11:23:51.724Z,44.68
2023-05-21T11:26:23.352Z,43.72
2023-05-21T11:29:08.742Z,43.11
2023-05-21T11:31:39.016Z,42.10
2023-05-21T11:34:28.525Z,42.48
2023-05-21T11:37:35.516Z,42.77
2023-05-21T11:40:52.934Z,41.32
2023-05-21T11:43:18.731Z,41.62
2023-05-21T11:45:48.482Z,42.71
2023-05-21T11:48:15.824Z,43.89
2023-05-21T11:50:45.527Z,42.53
2023-05-21T11:53:12.436Z,42.06
2023-05-21T11:55:43.610Z,41.23
2023-05-21T11:58:19.254Z,40.88
2023-05-21T12:00:46.001Z,41.70
2023-05-21T12:03:14.471Z,41.04
2023-05-21T12:05:50.753Z,41.47
2023-05-21T12:08:27.103Z,38.81
2023-05-21T12:11:31.383Z,40.76
2023-05-21T12:14:00.241Z,40.24
2023-05-21T12:16:27.116Z,41.94
2023-05-21T12:18:57.539Z,41.22
2023-05-21T12:21:33.022Z,39.56
2023-05-21T12:24:09.217Z,40.16
2023-05-21T12:26:55.801Z,40.31
2023-05-21T12:30:37.914Z,39.48
2023-05-21T12:33:14.376Z,39.69
2023-05-21T12:36:14.014Z,40.25
2023-05-21T12:39:29.972Z,39.06
2023-05-21T12:41:57.053Z,38.61
2023-05-21T12:44:23.757Z,37.48
2023-05-21T12:46:57.131Z,37.74
2023-05-21T12:52:36.273Z,36.89
2023-05-21T12:55:17.430Z,37.26
2023-05-21T12:58:05.708Z,36.08
2023-05-21T13:00:47.468Z,35.97
2023-05-21T13:03:14.603Z,36.24
2023-05-21T13:06:01.455Z,37.22
2023-05-21T13:09:06.032Z,36.37
2023-05-21T13:11:53.020Z,36.70
2023-05-21T13:14:19.810Z,36.77
2023-05-21T13:23:14.909Z,34.46
2023-05-21T13:26:33.079Z,35.34
2023-05-21T13:28:59.708Z,35.66
2023-05-21T13:31:37.802Z,35.54
2023-05-21T13:34:43.912Z,34.72
2023-05-21T13:37:31.205Z,35.19
2023-05-21T13:40:27.446Z,34.94
2023-05-21T13:42:54.176Z,34.14
2023-05-21T13:45:21.690Z,34.66
2023-05-21T13:48:11.035Z,29.96
2023-05-21T13:50:43.118Z,30.50
2023-05-21T13:53:11.772Z,31.45
2023-05-21T13:55:38.284Z,29.90
2023-05-21T13:58:09.927Z,29.76
2023-05-21T14:00:38.971Z,29.54
2023-05-21T14:03:07.682Z,30.12
2023-05-21T14:05:36.830Z,30.53
2023-05-21T14:08:03.812Z,30.69
2023-05-21T14:10:30.645Z,30.20
2023-05-21T14:13:04.239Z,30.64
2023-05-21T14:15:37.105Z,30.39
2023-05-21T14:18:13.413Z,30.37
2023-05-21T14:20:42.749Z,31.90
2023-05-21T14:23:09.999Z,32.38
2023-05-21T14:25:36.668Z,32.60
2023-05-21T14:28:05.676Z,34.71
2023-05-21T14:30:40.123Z,34.39
2023-05-21T14:33:17.228Z,33.59
2023-05-21T14:35:44.360Z,33.35
2023-05-21T14:38:11.228Z,33.42
2023-05-21T14:40:40.607Z,34.10
2023-05-21T14:43:15.227Z,34.59
2023-05-21T14:45:41.885Z,34.54
2023-05-21T14:48:16.252Z,35.80
2023-05-21T14:50:48.925Z,35.67
2023-05-21T14:53:32.624Z,34.63
2023-05-21T14:56:14.818Z,34.62
2023-05-21T14:59:04.604Z,35.98
2023-05-21T15:01:37.052Z,35.37
2023-05-21T15:04:08.143Z,36.56
2023-05-21T15:06:35.214Z,36.52
2023-05-21T15:09:12.484Z,36.82
2023-05-21T15:11:46.917Z,37.30
2023-05-21T15:14:27.008Z,37.46
2023-05-21T15:16:55.846Z,38.34
2023-05-21T15:19:37.171Z,38.53
2023-05-21T15:22:08.877Z,38.77
2023-05-21T15:24:35.872Z,37.92
2023-05-21T15:27:16.999Z,39.03
2023-05-21T15:29:47.196Z,39.69
2023-05-21T15:35:11.532Z,38.78
2023-05-21T15:37:38.471Z,38.09
2023-05-21T15:40:08.222Z,38.68
2023-05-21T15:42:37.890Z,38.73
2023-05-21T15:45:07.910Z,38.46
2023-05-21T15:47:42.693Z,37.76
2023-05-21T15:50:10.453Z,36.71
2023-05-21T15:52:37.158Z,37.05
2023-05-21T15:55:04.160Z,36.81
2023-05-21T15:57:30.720Z,37.30
2023-05-21T15:59:57.234Z,37.25
2023-05-21T16:02:23.834Z,36.02
2023-05-21T16:04:51.919Z,37.16
2023-05-21T16:07:36.253Z,37.88
2023-05-21T16:10:05.719Z,38.10
2023-05-21T16:12:33.980Z,38.00
2023-05-21T16:15:00.822Z,38.70
2023-05-21T16:17:27.425Z,38.27
2023-05-21T16:19:54.071Z,37.93
2023-05-21T16:22:23.179Z,36.82
2023-05-21T16:24:49.712Z,36.98
2023-05-21T16:27:16.635Z,37.17
2023-05-21T16:29:43.233Z,37.84
2023-05-21T16:32:10.724Z,38.33
2023-05-21T16:34:40.219Z,38.97
2023-05-21T16:37:09.133Z,38.75
2023-05-21T16:39:39.342Z,39.69
2023-05-21T16:42:08.374Z,39.30
2023-05-21T16:44:37.063Z,38.78
2023-05-21T16:47:04.595Z,39.28
2023-05-21T16:49:31.148Z,38.76
2023-05-21T16:51:57.973Z,38.80
2023-05-21T16:54:25.026Z,39.05
2023-05-21T16:56:54.981Z,39.66
2023-05-21T16:59:21.585Z,39.78
2023-05-21T17:01:48.940Z,39.78
2023-05-21T17:04:15.747Z,40.46
2023-05-21T17:06:44.994Z,40.59
2023-05-21T17:09:15.585Z,41.52
2023-05-21T17:11:43.675Z,42.24
2023-05-21T17:14:23.268Z,42.80
2023-05-21T17:16:59.626Z,43.13
2023-05-21T17:19:26.289Z,43.35
2023-05-21T17:21:55.219Z,44.27
2023-05-21T17:24:21.951Z,44.36
2023-05-21T17:26:48.537Z,44.05
2023-05-21T17:29:15.042Z,45.52
2023-05-21T17:31:41.671Z,46.59
2023-05-21T17:34:08.224Z,45.81
2023-05-21T17:36:36.002Z,45.70
2023-05-21T17:39:02.990Z,48.52
2023-05-21T17:41:30.033Z,48.33
2023-05-21T17:43:57.202Z,48.06
2023-05-21T17:46:33.607Z,48.57
2023-05-21T17:52:50.036Z,49.86
2023-05-21T17:55:17.120Z,49.91
2023-05-21T17:57:44.053Z,51.22
2023-05-21T18:00:15.790Z,51.38
2023-05-21T18:02:42.664Z,52.39
2023-05-21T18:05:09.377Z,53.01
2023-05-21T18:07:37.590Z,54.05
2023-05-21T18:10:09.972Z,54.53
2023-05-21T18:12:36.465Z,54.35
2023-05-21T18:15:08.701Z,55.65
2023-05-21T18:17:35.322Z,55.60
2023-05-21T18:20:05.612Z,56.35
2023-05-21T18:24:01.836Z,58.24
2023-05-21T18:26:07.541Z,59.08
2023-05-21T18:28:34.562Z,59.64
2023-05-21T18:31:01.302Z,59.96
2023-05-21T18:33:29.017Z,61.92
2023-05-21T18:35:56.016Z,60.47
2023-05-21T18:38:22.561Z,60.60
2023-05-21T18:40:55.488Z,61.20
2023-05-21T18:43:22.277Z,61.31
2023-05-21T18:45:48.962Z,62.51
2023-05-21T18:48:16.149Z,61.24
2023-05-21T18:50:43.036Z,62.83
2023-05-21T18:53:10.894Z,63.94
2023-05-21T18:55:37.802Z,64.02
2023-05-21T18:58:04.848Z,63.61
2023-05-21T19:00:31.800Z,65.05
2023-05-21T19:02:58.484Z,65.55
2023-05-21T19:05:25.304Z,64.96
2023-05-21T19:07:52.357Z,65.85
2023-05-21T19:10:19.821Z,66.85
2023-05-21T19:12:46.923Z,66.05
2023-05-21T19:15:13.918Z,65.85
2023-05-21T19:17:41.054Z,66.80
2023-05-21T19:20:10.237Z,66.88
2023-05-21T19:22:39.929Z,67.78
2023-05-21T19:25:07.180Z,67.84
2023-05-21T19:27:34.742Z,68.29
2023-05-21T19:30:01.736Z,70.81
2023-05-21T19:32:28.572Z,72.47
2023-05-21T19:34:57.678Z,73.55
2023-05-21T19:37:24.451Z,74.11
2023-05-21T19:39:51.362Z,74.35
2023-05-21T19:42:19.959Z,72.96
2023-05-21T19:44:47.099Z,71.75
2023-05-21T19:47:16.614Z,71.39
2023-05-21T19:49:43.708Z,71.96
2023-05-21T19:52:10.845Z,70.74
2023-05-21T19:54:37.630Z,71.59
2023-05-21T19:57:04.538Z,72.65
2023-05-21T19:59:31.483Z,72.85
2023-05-21T20:02:41.269Z,73.26
2023-05-21T20:05:16.303Z,72.83
2023-05-21T20:08:10.473Z,73.39
2023-05-21T20:10:37.700Z,73.94
2023-05-21T20:13:08.061Z,73.54
2023-05-21T20:22:42.109Z,71.44
2023-05-21T20:35:40.604Z,73.31
2023-05-21T20:38:25.223Z,73.96
2023-05-21T20:44:16.158Z,73.98
2023-05-21T20:46:49.579Z,73.91
2023-05-21T20:49:33.424Z,74.59
2023-05-21T20:52:01.225Z,73.69
2023-05-21T20:54:31.062Z,73.73
2023-05-21T20:57:20.592Z,74.36
2023-05-21T21:00:09.632Z,75.09
2023-05-21T21:02:42.541Z,75.10
2023-05-21T22:13:20.996Z,71.35
2023-05-21T22:15:51.160Z,71.66
2023-05-21T22:18:31.941Z,72.20
2023-05-21T22:21:10.167Z,72.50
2023-05-21T22:23:47.380Z,72.61
2023-05-21T22:26:14.258Z,72.86
2023-05-21T22:28:43.826Z,72.18
2023-05-21T22:31:28.890Z,72.41
2023-05-21T22:34:03.238Z,72.40
2023-05-21T22:36:36.246Z,71.93
2023-05-21T22:39:32.861Z,72.69
2023-05-21T22:42:28.470Z,73.12
2023-05-21T22:45:44.518Z,72.56
2023-05-21T22:48:21.229Z,73.60
2023-05-21T22:50:50.110Z,74.07
2023-05-21T22:53:17.208Z,74.66
2023-05-21T22:55:43.948Z,74.99
2023-05-21T22:58:10.675Z,75.48
2023-05-21T23:00:37.945Z,75.56
2023-05-21T23:03:04.859Z,76.49
2023-05-21T23:05:31.520Z,76.55
2023-05-21T23:08:00.324Z,77.69
2023-05-21T23:10:27.123Z,77.36
2023-05-21T23:12:54.352Z,77.70
2023-05-21T23:15:21.720Z,77.75
2023-05-21T23:17:48.416Z,78.20
2023-05-21T23:20:15.541Z,78.54
2023-05-21T23:22:42.092Z,79.27
2023-05-21T23:25:09.097Z,79.24
2023-05-21T23:27:35.651Z,79.21
2023-05-21T23:30:02.195Z,79.79
2023-05-21T23:32:28.857Z,80.28
2023-05-21T23:34:56.927Z,80.41
2023-05-21T23:37:23.483Z,78.35
2023-05-21T23:39:51.042Z,78.52
2023-05-21T23:42:18.418Z,78.50
2023-05-21T23:44:45.244Z,78.73
2023-05-21T23:47:11.866Z,79.11
2023-05-21T23:49:39.333Z,77.74
2023-05-21T23:52:07.062Z,78.02
2023-05-21T23:54:33.616Z,76.84
2023-05-21T23:57:00.232Z,75.97
2023-05-21T23:59:26.955Z,76.13
